createdAt,value
2022-12-28T00:01:25.791Z,2.63
2022-12-28T00:03:54.173Z,2.33
2022-12-28T00:06:23.197Z,2.50
2022-12-28T00:08:53.718Z,2.65
2022-12-28T00:11:28.479Z,2.47
2022-12-28T00:14:01.692Z,3.47
2022-12-28T00:16:34.252Z,2.75
2022-12-28T00:19:05.464Z,2.60
2022-12-28T00:21:32.848Z,2.40
2022-12-28T00:24:00.669Z,2.17
2022-12-28T00:26:29.308Z,2.58
2022-12-28T00:29:03.650Z,2.55
2022-12-28T00:31:33.310Z,2.22
2022-12-28T00:37:09.902Z,2.17
2022-12-28T00:39:14.098Z,2.40
2022-12-28T00:41:40.918Z,2.65
2022-12-28T00:44:08.731Z,2.28
2022-12-28T00:46:35.628Z,2.80
2022-12-28T00:49:02.477Z,2.33
2022-12-28T00:51:29.310Z,2.33
2022-12-28T00:53:56.368Z,2.53
2022-12-28T00:56:23.927Z,2.28
2022-12-28T00:58:55.295Z,2.88
2022-12-28T01:01:23.733Z,2.25
2022-12-28T01:03:51.092Z,2.30
2022-12-28T01:06:19.542Z,2.60
2022-12-28T01:08:46.751Z,2.33
2022-12-28T01:11:20.139Z,2.40
2022-12-28T01:13:47.956Z,2.58
2022-12-28T01:16:26.350Z,2.50
2022-12-28T01:18:55.984Z,2.40
2022-12-28T01:21:25.226Z,2.88
2022-12-28T01:23:55.355Z,3.03
2022-12-28T01:26:22.470Z,2.30
2022-12-28T01:28:49.489Z,2.75
2022-12-28T01:31:18.032Z,3.05
2022-12-28T01:33:45.760Z,2.70
2022-12-28T01:36:21.528Z,2.80
2022-12-28T01:38:51.708Z,2.80
2022-12-28T01:41:19.545Z,2.65
2022-12-28T01:43:47.994Z,2.58
2022-12-28T01:46:32.747Z,2.35
2022-12-28T01:49:05.746Z,2.83
2022-12-28T01:51:40.218Z,2.75
2022-12-28T01:54:07.158Z,2.92
2022-12-28T01:56:34.029Z,2.80
2022-12-28T01:59:00.923Z,2.83
2022-12-28T02:01:28.017Z,2.92
2022-12-28T02:03:55.560Z,3.00
2022-12-28T02:06:22.341Z,3.10
2022-12-28T02:09:10.297Z,3.60
2022-12-28T02:11:38.308Z,3.03
2022-12-28T02:14:07.259Z,2.85
2022-12-28T02:16:34.112Z,2.80
2022-12-28T02:19:01.222Z,2.75
2022-12-28T02:21:38.549Z,2.95
2022-12-28T02:24:46.414Z,2.88
2022-12-28T02:27:22.295Z,3.15
2022-12-28T02:30:01.627Z,3.40
2022-12-28T02:33:09.171Z,2.90
2022-12-28T02:35:38.862Z,3.15
2022-12-28T02:38:24.617Z,3.33
2022-12-28T02:41:01.178Z,3.13
2022-12-28T02:43:28.258Z,2.90
2022-12-28T02:46:13.522Z,2.42
2022-12-28T02:49:03.319Z,2.80
2022-12-28T02:51:48.242Z,2.97
2022-12-28T02:54:47.920Z,2.85
2022-12-28T02:57:21.575Z,3.30
2022-12-28T03:00:06.857Z,3.05
2022-12-28T03:02:51.863Z,3.05
2022-12-28T03:05:52.261Z,3.38
2022-12-28T03:08:28.180Z,3.00
2022-12-28T03:11:09.901Z,3.53
2022-12-28T03:13:56.237Z,3.25
2022-12-28T03:16:54.647Z,3.70
2022-12-28T03:19:49.883Z,3.38
2022-12-28T03:22:37.926Z,2.90
2022-12-28T03:25:30.183Z,3.10
2022-12-28T03:28:18.722Z,3.13
2022-12-28T03:31:06.740Z,2.90
2022-12-28T03:33:44.773Z,3.03
2022-12-28T03:37:07.073Z,2.92
2022-12-28T03:39:38.570Z,2.67
2022-12-28T03:42:53.812Z,2.60
2022-12-28T03:45:46.546Z,2.70
2022-12-28T03:48:16.847Z,3.08
2022-12-28T03:50:46.599Z,2.60
2022-12-28T03:53:18.083Z,2.22
2022-12-28T03:55:45.128Z,2.30
2022-12-28T03:58:13.741Z,2.50
2022-12-28T04:00:41.742Z,2.42
2022-12-28T04:03:08.793Z,2.42
2022-12-28T04:05:35.741Z,2.53
2022-12-28T04:08:02.592Z,2.50
2022-12-28T04:10:29.480Z,2.33
2022-12-28T04:12:56.947Z,2.33
2022-12-28T04:15:37.409Z,2.38
2022-12-28T04:18:04.504Z,2.60
2022-12-28T04:20:31.510Z,2.30
2022-12-28T04:22:58.385Z,2.13
2022-12-28T04:25:25.307Z,2.88
2022-12-28T04:27:52.814Z,2.30
2022-12-28T04:30:38.408Z,2.20
2022-12-28T04:33:05.203Z,2.40
2022-12-28T04:35:33.208Z,2.00
2022-12-28T04:38:00.155Z,2.05
2022-12-28T04:40:26.908Z,2.05
2022-12-28T04:42:53.671Z,2.28
2022-12-28T04:45:22.416Z,1.92
2022-12-28T04:47:49.479Z,1.85
2022-12-28T04:50:16.337Z,1.85
2022-12-28T04:52:43.549Z,1.80
2022-12-28T04:55:32.760Z,2.28
2022-12-28T04:57:59.968Z,2.10
2022-12-28T05:00:26.900Z,1.88
2022-12-28T05:02:53.800Z,1.55
2022-12-28T05:05:20.676Z,1.65
2022-12-28T05:07:47.455Z,1.83
2022-12-28T05:10:14.306Z,1.90
2022-12-28T05:12:41.285Z,1.60
2022-12-28T05:15:08.521Z,1.48
2022-12-28T05:17:35.500Z,2.20
2022-12-28T05:20:03.424Z,1.50
2022-12-28T05:22:30.339Z,1.60
2022-12-28T05:24:57.180Z,2.00
2022-12-28T05:27:23.975Z,1.77
2022-12-28T05:29:50.787Z,1.65
2022-12-28T05:32:17.590Z,1.33
2022-12-28T05:34:45.121Z,1.45
2022-12-28T05:37:15.742Z,1.70
2022-12-28T05:39:46.927Z,1.80
2022-12-28T05:42:13.661Z,1.48
2022-12-28T05:44:40.503Z,1.65
2022-12-28T05:47:07.282Z,1.58
2022-12-28T05:49:34.051Z,1.45
2022-12-28T05:52:00.829Z,1.45
2022-12-28T05:54:27.591Z,1.48
2022-12-28T05:56:54.340Z,1.80
2022-12-28T05:59:21.151Z,1.30
2022-12-28T06:01:47.991Z,1.42
2022-12-28T06:04:17.916Z,1.70
2022-12-28T06:06:45.883Z,1.50
2022-12-28T06:09:13.273Z,1.65
2022-12-28T06:11:43.566Z,1.88
2022-12-28T06:14:10.356Z,1.70
2022-12-28T06:16:40.650Z,1.55
2022-12-28T06:19:10.373Z,1.38
2022-12-28T06:21:39.434Z,1.70
2022-12-28T06:24:07.165Z,1.50
2022-12-28T06:26:35.780Z,1.70
2022-12-28T06:29:02.620Z,1.45
2022-12-28T06:31:32.252Z,1.50
2022-12-28T06:34:00.564Z,1.55
2022-12-28T06:36:33.300Z,1.92
2022-12-28T06:39:01.637Z,1.75
2022-12-28T06:41:29.203Z,2.05
2022-12-28T06:43:56.651Z,2.00
2022-12-28T06:46:25.047Z,2.10
2022-12-28T06:48:52.306Z,2.10
2022-12-28T06:51:25.120Z,2.27
2022-12-28T06:53:52.848Z,2.60
2022-12-28T06:56:25.670Z,2.85
2022-12-28T06:59:00.315Z,2.60
2022-12-28T07:01:38.424Z,2.20
2022-12-28T07:04:07.377Z,2.25
2022-12-28T07:06:37.614Z,2.58
2022-12-28T07:09:07.303Z,2.83
2022-12-28T07:11:34.202Z,2.80
2022-12-28T07:14:00.994Z,3.10
2022-12-28T07:18:56.116Z,2.95
2022-12-28T07:21:25.424Z,3.20
2022-12-28T07:23:53.793Z,3.63
2022-12-28T07:26:23.311Z,3.13
2022-12-28T07:28:52.450Z,3.17
2022-12-28T07:31:28.263Z,3.53
2022-12-28T07:33:59.350Z,3.05
2022-12-28T07:36:28.670Z,3.60
2022-12-28T07:38:56.509Z,3.38
2022-12-28T07:41:26.176Z,3.10
2022-12-28T07:43:53.024Z,3.58
2022-12-28T07:46:22.449Z,3.50
2022-12-28T07:48:49.755Z,3.30
2022-12-28T07:51:22.427Z,2.80
2022-12-28T07:53:50.966Z,3.22
2022-12-28T07:56:18.868Z,3.30
2022-12-28T07:58:57.088Z,2.90
2022-12-28T08:01:25.512Z,3.05
2022-12-28T08:03:57.900Z,3.85
2022-12-28T08:06:26.193Z,3.10
2022-12-28T08:11:23.485Z,3.20
2022-12-28T08:13:52.481Z,2.80
2022-12-28T08:16:21.357Z,3.03
2022-12-28T08:18:49.301Z,2.72
2022-12-28T08:21:25.544Z,3.00
2022-12-28T08:23:52.921Z,3.13
2022-12-28T08:26:25.288Z,3.17
2022-12-28T08:28:54.544Z,3.03
2022-12-28T08:31:27.834Z,2.80
2022-12-28T08:33:56.614Z,3.03
2022-12-28T08:36:23.505Z,2.92
2022-12-28T08:38:51.001Z,3.03
2022-12-28T08:41:21.353Z,3.17
2022-12-28T08:43:48.683Z,2.90
2022-12-28T08:46:30.013Z,2.50
2022-12-28T08:48:58.418Z,2.45
2022-12-28T08:51:29.996Z,2.85
2022-12-28T08:53:56.865Z,2.47
2022-12-28T08:56:29.454Z,2.50
2022-12-28T08:58:57.653Z,2.50
2022-12-28T09:03:55.047Z,2.30
2022-12-28T09:06:25.260Z,2.30
2022-12-28T09:09:05.453Z,2.60
2022-12-28T09:11:38.223Z,2.25
2022-12-28T09:14:06.953Z,2.50
2022-12-28T09:16:34.278Z,2.65
2022-12-28T09:19:04.281Z,2.53
2022-12-28T09:21:34.753Z,2.50
2022-12-28T09:24:02.424Z,2.40
2022-12-28T09:26:31.843Z,2.13
2022-12-28T09:29:00.479Z,2.35
2022-12-28T09:31:32.582Z,2.10
2022-12-28T09:36:49.343Z,2.55
2022-12-28T09:39:19.082Z,2.28
2022-12-28T09:41:49.847Z,2.53
2022-12-28T09:44:36.103Z,2.38
2022-12-28T09:47:28.672Z,2.40
2022-12-28T09:50:13.816Z,1.95
2022-12-28T09:53:04.446Z,2.30
2022-12-28T09:55:36.961Z,2.83
2022-12-28T09:58:15.335Z,2.40
2022-12-28T10:00:48.839Z,2.40
2022-12-28T10:03:18.328Z,2.20
2022-12-28T10:05:45.775Z,2.50
2022-12-28T10:08:16.342Z,2.40
2022-12-28T10:10:48.332Z,2.50
2022-12-28T10:16:18.727Z,2.35
2022-12-28T10:18:47.105Z,2.30
2022-12-28T10:24:12.087Z,2.10
2022-12-28T10:26:30.243Z,2.10
2022-12-28T10:29:01.183Z,2.20
2022-12-28T10:31:39.212Z,2.25
2022-12-28T10:36:50.801Z,1.85
2022-12-28T10:41:51.471Z,2.22
2022-12-28T10:47:30.430Z,1.77
2022-12-28T10:52:56.257Z,1.88
2022-12-28T10:55:31.701Z,1.80
2022-12-28T10:58:30.861Z,1.60
2022-12-28T11:01:06.887Z,1.77
2022-12-28T11:03:37.009Z,1.65
2022-12-28T11:06:22.676Z,1.40
2022-12-28T11:09:16.731Z,1.88
2022-12-28T11:11:45.793Z,2.13
2022-12-28T11:14:38.861Z,1.60
2022-12-28T11:17:27.125Z,1.73
2022-12-28T11:20:09.449Z,1.50
2022-12-28T11:22:37.626Z,1.52
2022-12-28T11:27:36.037Z,1.77
2022-12-28T11:30:03.694Z,2.20
2022-12-28T11:32:38.120Z,1.70
2022-12-28T11:35:06.898Z,1.48
2022-12-28T11:37:33.783Z,1.90
2022-12-28T11:40:00.728Z,1.77
2022-12-28T11:42:39.648Z,2.00
2022-12-28T11:45:15.894Z,1.65
2022-12-28T11:47:43.040Z,1.67
2022-12-28T11:50:36.514Z,1.42
2022-12-28T11:53:09.133Z,1.65
2022-12-28T11:55:55.690Z,1.80
2022-12-28T11:58:35.031Z,2.03
2022-12-28T12:01:04.706Z,1.63
2022-12-28T12:03:56.409Z,1.63
2022-12-28T12:06:48.720Z,1.67
2022-12-28T12:09:21.385Z,1.65
2022-12-28T12:12:23.237Z,1.83
2022-12-28T12:15:20.877Z,1.75
2022-12-28T12:18:00.018Z,1.60
2022-12-28T12:21:15.487Z,1.67
2022-12-28T12:23:56.511Z,1.67
2022-12-28T12:26:40.493Z,1.50
2022-12-28T12:29:14.346Z,1.42
2022-12-28T12:31:49.881Z,1.60
2022-12-28T12:34:47.468Z,1.40
2022-12-28T12:37:32.384Z,1.40
2022-12-28T12:40:20.502Z,1.58
2022-12-28T12:43:23.381Z,1.48
2022-12-28T12:46:27.511Z,1.52
2022-12-28T12:49:28.413Z,1.60
2022-12-28T12:52:25.697Z,1.30
2022-12-28T12:55:22.907Z,1.30
2022-12-28T12:58:26.520Z,1.38
2022-12-28T13:01:18.589Z,1.55
2022-12-28T13:03:47.883Z,1.52
2022-12-28T13:06:21.866Z,1.60
2022-12-28T13:09:04.962Z,1.50
2022-12-28T13:11:37.050Z,1.23
2022-12-28T13:14:04.354Z,1.33
2022-12-28T13:16:32.564Z,1.40
2022-12-28T13:21:45.477Z,1.30
2022-12-28T13:24:30.028Z,1.70
2022-12-28T13:26:59.413Z,1.30
2022-12-28T13:29:35.897Z,1.60
2022-12-28T13:32:02.824Z,1.30
2022-12-28T13:34:35.071Z,1.33
2022-12-28T13:37:07.417Z,1.80
2022-12-28T13:39:41.558Z,1.20
2022-12-28T13:42:14.330Z,1.50
2022-12-28T13:44:49.436Z,1.35
2022-12-28T13:47:28.211Z,1.55
2022-12-28T13:50:16.306Z,1.52
2022-12-28T13:52:55.521Z,1.45
2022-12-28T13:55:37.475Z,1.60
2022-12-28T13:58:08.666Z,1.83
2022-12-28T14:00:37.655Z,1.38
2022-12-28T14:03:09.254Z,1.83
2022-12-28T14:05:36.257Z,2.03
2022-12-28T14:08:06.064Z,1.50
2022-12-28T14:10:33.569Z,1.77
2022-12-28T14:13:02.698Z,1.85
2022-12-28T14:15:31.694Z,2.00
2022-12-28T14:18:02.570Z,2.25
2022-12-28T14:20:29.792Z,1.83
2022-12-28T14:23:21.206Z,2.28
2022-12-28T14:25:48.725Z,2.00
2022-12-28T14:28:26.912Z,1.85
2022-12-28T14:33:26.005Z,1.80
2022-12-28T14:35:57.158Z,1.85
2022-12-28T14:38:28.869Z,2.03
2022-12-28T14:40:58.384Z,1.65
2022-12-28T14:43:28.033Z,1.98
2022-12-28T14:46:04.879Z,1.80
2022-12-28T14:48:40.157Z,1.75
2022-12-28T14:54:12.096Z,1.67
2022-12-28T14:56:40.311Z,3.05
2022-12-28T15:01:45.534Z,2.28
2022-12-28T15:04:38.511Z,2.15
2022-12-28T15:07:11.735Z,1.70
2022-12-28T15:09:38.523Z,1.63
2022-12-28T15:12:13.360Z,1.75
2022-12-28T15:14:40.941Z,2.10
2022-12-28T15:17:09.166Z,2.10
2022-12-28T15:22:03.022Z,1.92
2022-12-28T15:24:33.835Z,1.80
2022-12-28T15:27:02.736Z,1.80
2022-12-28T15:32:16.441Z,1.53
2022-12-28T15:34:43.260Z,1.58
2022-12-28T15:37:10.047Z,1.88
2022-12-28T15:39:36.875Z,1.52
2022-12-28T15:42:03.751Z,1.60
2022-12-28T15:44:30.707Z,1.60
2022-12-28T15:46:57.582Z,1.50
2022-12-28T15:49:24.528Z,2.10
2022-12-28T15:51:51.600Z,1.48
2022-12-28T15:54:18.804Z,1.75
2022-12-28T15:56:52.568Z,2.08
2022-12-28T15:59:19.853Z,1.73
2022-12-28T16:01:47.362Z,2.13
2022-12-28T16:04:14.780Z,1.55
2022-12-28T16:06:44.563Z,1.53
2022-12-28T16:09:13.442Z,1.80
2022-12-28T16:14:13.006Z,1.73
2022-12-28T16:16:40.548Z,1.60
2022-12-28T16:19:12.408Z,1.40
2022-12-28T16:21:39.503Z,2.80
2022-12-28T16:24:06.575Z,3.60
2022-12-28T16:26:33.824Z,1.83
2022-12-28T16:29:00.961Z,1.57
2022-12-28T16:31:29.854Z,1.58
2022-12-28T16:34:13.495Z,1.63
2022-12-28T16:36:40.562Z,1.70
2022-12-28T16:39:11.971Z,1.80
2022-12-28T16:41:38.790Z,1.58
2022-12-28T16:44:09.193Z,1.77
2022-12-28T16:46:36.197Z,1.67
2022-12-28T16:49:03.353Z,1.60
2022-12-28T16:51:31.170Z,1.85
2022-12-28T16:53:58.208Z,1.58
2022-12-28T16:56:25.039Z,2.08
2022-12-28T16:58:59.033Z,1.58
2022-12-28T17:01:26.245Z,1.90
2022-12-28T17:03:55.322Z,2.15
2022-12-28T17:06:25.503Z,1.90
2022-12-28T17:08:53.037Z,3.78
2022-12-28T17:11:19.887Z,4.88
2022-12-28T17:13:46.742Z,2.05
2022-12-28T17:16:13.631Z,1.80
2022-12-28T17:18:40.516Z,2.00
2022-12-28T17:21:10.062Z,1.95
2022-12-28T17:23:40.143Z,1.90
2022-12-28T17:26:07.331Z,1.70
2022-12-28T17:28:34.155Z,1.60
2022-12-28T17:31:09.078Z,2.05
2022-12-28T17:33:40.435Z,1.60
2022-12-28T17:36:08.878Z,2.08
2022-12-28T17:38:36.176Z,1.70
2022-12-28T17:41:18.306Z,1.47
2022-12-28T17:44:04.762Z,1.70
2022-12-28T17:46:33.094Z,1.90
2022-12-28T17:49:00.774Z,1.42
2022-12-28T17:51:29.109Z,1.73
2022-12-28T17:53:56.835Z,1.60
2022-12-28T17:56:24.007Z,1.50
2022-12-28T17:58:56.479Z,1.60
2022-12-28T18:01:24.570Z,1.50
2022-12-28T18:06:18.674Z,1.80
2022-12-28T18:08:45.826Z,1.60
2022-12-28T18:11:12.950Z,1.52
2022-12-28T18:13:43.564Z,1.88
2022-12-28T18:16:14.840Z,1.85
2022-12-28T18:18:42.058Z,1.63
2022-12-28T18:21:17.812Z,1.85
2022-12-28T18:23:52.771Z,1.48
2022-12-28T18:26:22.733Z,1.90
2022-12-28T18:28:49.707Z,1.55
2022-12-28T18:31:16.607Z,1.63
2022-12-28T18:33:43.652Z,1.77
2022-12-28T18:36:17.129Z,1.88
2022-12-28T18:38:46.859Z,1.70
2022-12-28T18:41:17.342Z,1.73
2022-12-28T18:43:44.613Z,1.98
2022-12-28T18:46:11.875Z,2.00
2022-12-28T18:48:41.081Z,1.80
2022-12-28T18:51:21.897Z,1.77
2022-12-28T18:53:51.760Z,1.88
2022-12-28T18:56:21.884Z,1.73
2022-12-28T18:58:54.667Z,1.63
2022-12-28T19:04:29.368Z,1.52
2022-12-28T19:06:57.750Z,1.75
2022-12-28T19:12:16.221Z,2.03
2022-12-28T19:14:46.505Z,1.98
2022-12-28T19:17:14.864Z,1.88
2022-12-28T19:19:42.051Z,1.90
2022-12-28T19:22:08.997Z,1.92
2022-12-28T19:24:35.898Z,1.55
2022-12-28T19:28:13.960Z,1.90
2022-12-28T19:30:40.735Z,1.80
2022-12-28T19:33:07.562Z,2.13
2022-12-28T19:35:34.409Z,1.80
2022-12-28T19:38:01.207Z,1.92
2022-12-28T19:40:28.095Z,2.33
2022-12-28T19:42:54.898Z,2.13
2022-12-28T19:45:21.707Z,2.22
2022-12-28T19:47:48.595Z,1.98
2022-12-28T19:50:15.640Z,1.92
2022-12-28T19:52:42.616Z,2.10
2022-12-28T19:55:10.571Z,2.10
2022-12-28T19:57:38.894Z,4.43
2022-12-28T20:00:07.550Z,4.20
2022-12-28T20:02:34.796Z,2.30
2022-12-28T20:05:01.737Z,1.80
2022-12-28T20:07:29.305Z,1.75
2022-12-28T20:09:56.119Z,1.83
2022-12-28T20:12:22.969Z,1.75
2022-12-28T20:14:50.529Z,1.80
2022-12-28T20:17:18.021Z,1.65
2022-12-28T20:19:45.070Z,1.50
2022-12-28T20:22:14.744Z,1.80
2022-12-28T20:24:42.800Z,1.50
2022-12-28T20:27:10.202Z,1.58
2022-12-28T20:32:06.814Z,1.50
2022-12-28T20:34:35.483Z,1.02
2022-12-28T20:37:31.937Z,1.50
2022-12-28T20:39:58.790Z,1.58
2022-12-28T20:42:44.158Z,1.58
2022-12-28T20:45:11.105Z,2.20
2022-12-28T20:47:38.870Z,1.80
2022-12-28T20:50:06.256Z,1.80
2022-12-28T20:52:33.050Z,1.35
2022-12-28T20:54:59.839Z,1.40
2022-12-28T20:57:26.632Z,1.75
2022-12-28T20:59:53.498Z,1.50
2022-12-28T21:02:20.575Z,1.40
2022-12-28T21:04:47.530Z,1.48
2022-12-28T21:07:14.527Z,1.40
2022-12-28T21:09:41.455Z,1.50
2022-12-28T21:12:08.220Z,1.55
2022-12-28T21:14:34.992Z,1.60
2022-12-28T21:17:01.914Z,1.77
2022-12-28T21:19:28.841Z,1.42
2022-12-28T21:21:56.136Z,1.65
2022-12-28T21:24:22.985Z,1.60
2022-12-28T21:26:49.775Z,1.55
2022-12-28T21:29:20.606Z,1.60
2022-12-28T21:31:52.531Z,1.65
2022-12-28T21:34:19.465Z,2.70
2022-12-28T21:36:46.258Z,1.63
2022-12-28T21:39:13.342Z,1.55
2022-12-28T21:41:48.967Z,1.75
2022-12-28T21:44:21.892Z,1.60
2022-12-28T21:46:53.501Z,1.40
2022-12-28T21:49:20.639Z,1.60
2022-12-28T21:51:47.449Z,1.55
2022-12-28T21:54:17.146Z,1.67
2022-12-28T21:56:46.130Z,1.80
2022-12-28T21:59:13.783Z,1.38
2022-12-28T22:02:00.868Z,1.30
2022-12-28T22:04:47.018Z,1.58
2022-12-28T22:07:16.350Z,1.55
2022-12-28T22:10:04.055Z,1.30
2022-12-28T22:12:37.268Z,1.60
2022-12-28T22:15:37.723Z,1.40
2022-12-28T22:18:52.819Z,1.70
2022-12-28T22:21:04.883Z,1.38
2022-12-28T22:23:34.865Z,1.55
2022-12-28T22:26:02.794Z,1.48
2022-12-28T22:28:29.873Z,1.45
2022-12-28T22:30:56.726Z,1.35
2022-12-28T22:33:23.609Z,1.42
2022-12-28T22:35:53.105Z,1.30
2022-12-28T22:38:19.909Z,1.17
2022-12-28T22:40:55.938Z,1.17
2022-12-28T22:43:22.747Z,1.60
2022-12-28T22:45:49.645Z,1.20
2022-12-28T22:48:16.439Z,1.45
2022-12-28T22:50:46.377Z,1.38
2022-12-28T22:53:13.220Z,1.40
2022-12-28T22:55:40.083Z,1.58
2022-12-28T22:58:07.681Z,1.63
2022-12-28T23:00:34.475Z,1.30
2022-12-28T23:03:01.367Z,1.50
2022-12-28T23:05:28.206Z,1.60
2022-12-28T23:07:55.051Z,1.63
2022-12-28T23:10:21.930Z,1.73
2022-12-28T23:12:48.840Z,1.70
2022-12-28T23:15:15.706Z,1.60
2022-12-28T23:17:42.551Z,1.52
2022-12-28T23:20:29.386Z,1.63
2022-12-28T23:23:14.791Z,1.50
2022-12-28T23:26:00.611Z,1.65
2022-12-28T23:28:27.903Z,1.63
2022-12-28T23:30:56.500Z,1.67
2022-12-28T23:33:23.836Z,1.60
2022-12-28T23:35:50.946Z,1.50
2022-12-28T23:38:17.994Z,1.73
2022-12-28T23:40:44.865Z,1.58
2022-12-28T23:43:11.734Z,1.45
2022-12-28T23:45:38.592Z,1.75
2022-12-28T23:48:05.596Z,1.50
2022-12-28T23:50:32.921Z,1.58
2022-12-28T23:52:59.768Z,1.70
2022-12-28T23:55:26.834Z,1.48
2022-12-28T23:57:53.663Z,1.60
